sensor_id;sensor_type;location;lat;lon;timestamp;P1;durP1;ratioP1;P2;durP2;ratioP2
8861;SDS011;4799;50.996;4.754;2024-01-30T00:02:12;10.83;;;8.33;;
8861;SDS011;4799;50.996;4.754;2024-01-30T00:04:38;9.77;;;7.83;;
8861;SDS011;4799;50.996;4.754;2024-01-30T00:07:03;10.57;;;8.60;;
8861;SDS011;4799;50.996;4.754;2024-01-30T00:09:29;9.47;;;7.60;;
8861;SDS011;4799;50.996;4.754;2024-01-30T00:11:55;9.10;;;7.63;;
8861;SDS011;4799;50.996;4.754;2024-01-30T00:14:21;8.20;;;7.40;;
8861;SDS011;4799;50.996;4.754;2024-01-30T00:16:48;8.77;;;7.60;;
8861;SDS011;4799;50.996;4.754;2024-01-30T00:19:14;7.50;;;6.80;;
8861;SDS011;4799;50.996;4.754;2024-01-30T00:21:40;6.90;;;6.20;;
8861;SDS011;4799;50.996;4.754;2024-01-30T00:24:06;7.33;;;6.63;;
8861;SDS011;4799;50.996;4.754;2024-01-30T00:26:32;7.87;;;7.07;;
8861;SDS011;4799;50.996;4.754;2024-01-30T00:28:57;6.37;;;5.77;;
8861;SDS011;4799;50.996;4.754;2024-01-30T00:31:23;6.83;;;6.13;;
8861;SDS011;4799;50.996;4.754;2024-01-30T00:33:50;6.70;;;5.93;;
8861;SDS011;4799;50.996;4.754;2024-01-30T00:36:15;6.73;;;6.00;;
8861;SDS011;4799;50.996;4.754;2024-01-30T00:38:41;7.53;;;5.80;;
8861;SDS011;4799;50.996;4.754;2024-01-30T00:41:08;8.87;;;6.70;;
8861;SDS011;4799;50.996;4.754;2024-01-30T00:43:34;7.20;;;5.87;;
8861;SDS011;4799;50.996;4.754;2024-01-30T00:46:00;7.17;;;6.47;;
8861;SDS011;4799;50.996;4.754;2024-01-30T00:48:26;9.27;;;6.60;;
8861;SDS011;4799;50.996;4.754;2024-01-30T00:50:52;8.40;;;6.50;;
8861;SDS011;4799;50.996;4.754;2024-01-30T00:53:18;7.37;;;6.33;;
8861;SDS011;4799;50.996;4.754;2024-01-30T00:55:43;7.33;;;6.10;;
8861;SDS011;4799;50.996;4.754;2024-01-30T00:58:09;7.10;;;5.77;;
8861;SDS011;4799;50.996;4.754;2024-01-30T01:00:35;7.33;;;6.00;;
8861;SDS011;4799;50.996;4.754;2024-01-30T01:03:01;9.03;;;6.87;;
8861;SDS011;4799;50.996;4.754;2024-01-30T01:05:27;9.40;;;6.57;;
8861;SDS011;4799;50.996;4.754;2024-01-30T01:07:53;7.00;;;6.27;;
8861;SDS011;4799;50.996;4.754;2024-01-30T01:10:19;6.00;;;5.50;;
8861;SDS011;4799;50.996;4.754;2024-01-30T01:12:45;7.07;;;6.33;;
8861;SDS011;4799;50.996;4.754;2024-01-30T01:15:11;5.87;;;5.27;;
8861;SDS011;4799;50.996;4.754;2024-01-30T01:17:37;6.43;;;5.77;;
8861;SDS011;4799;50.996;4.754;2024-01-30T01:20:04;6.57;;;5.80;;
8861;SDS011;4799;50.996;4.754;2024-01-30T01:22:31;6.13;;;5.53;;
8861;SDS011;4799;50.996;4.754;2024-01-30T01:24:58;7.73;;;5.67;;
8861;SDS011;4799;50.996;4.754;2024-01-30T01:27:24;6.67;;;5.53;;
8861;SDS011;4799;50.996;4.754;2024-01-30T01:29:51;6.57;;;5.60;;
8861;SDS011;4799;50.996;4.754;2024-01-30T01:32:17;7.43;;;5.80;;
8861;SDS011;4799;50.996;4.754;2024-01-30T01:34:43;5.97;;;5.37;;
8861;SDS011;4799;50.996;4.754;2024-01-30T01:37:09;7.20;;;5.33;;
8861;SDS011;4799;50.996;4.754;2024-01-30T01:39:35;6.00;;;5.40;;
8861;SDS011;4799;50.996;4.754;2024-01-30T01:42:00;5.73;;;5.23;;
8861;SDS011;4799;50.996;4.754;2024-01-30T01:44:26;6.27;;;5.67;;
8861;SDS011;4799;50.996;4.754;2024-01-30T01:46:52;6.10;;;5.50;;
8861;SDS011;4799;50.996;4.754;2024-01-30T01:49:19;6.07;;;5.47;;
8861;SDS011;4799;50.996;4.754;2024-01-30T01:51:46;7.27;;;5.43;;
8861;SDS011;4799;50.996;4.754;2024-01-30T01:54:13;5.80;;;5.20;;
8861;SDS011;4799;50.996;4.754;2024-01-30T01:56:39;5.67;;;5.10;;
8861;SDS011;4799;50.996;4.754;2024-01-30T01:59:07;6.50;;;5.50;;
8861;SDS011;4799;50.996;4.754;2024-01-30T02:01:33;6.13;;;5.50;;
8861;SDS011;4799;50.996;4.754;2024-01-30T02:04:01;6.17;;;5.57;;
8861;SDS011;4799;50.996;4.754;2024-01-30T02:06:27;5.90;;;5.20;;
8861;SDS011;4799;50.996;4.754;2024-01-30T02:08:53;6.67;;;5.63;;
8861;SDS011;4799;50.996;4.754;2024-01-30T02:11:20;6.27;;;5.30;;
8861;SDS011;4799;50.996;4.754;2024-01-30T02:13:47;7.03;;;5.30;;
8861;SDS011;4799;50.996;4.754;2024-01-30T02:16:13;6.00;;;5.40;;
8861;SDS011;4799;50.996;4.754;2024-01-30T02:18:38;5.73;;;5.17;;
8861;SDS011;4799;50.996;4.754;2024-01-30T02:21:08;6.17;;;5.57;;
8861;SDS011;4799;50.996;4.754;2024-01-30T02:23:34;6.30;;;5.70;;
8861;SDS011;4799;50.996;4.754;2024-01-30T02:26:00;7.17;;;5.67;;
8861;SDS011;4799;50.996;4.754;2024-01-30T02:28:26;6.77;;;5.50;;
8861;SDS011;4799;50.996;4.754;2024-01-30T02:30:52;5.77;;;5.20;;
8861;SDS011;4799;50.996;4.754;2024-01-30T02:33:18;6.80;;;5.47;;
8861;SDS011;4799;50.996;4.754;2024-01-30T02:35:44;6.10;;;5.50;;
8861;SDS011;4799;50.996;4.754;2024-01-30T02:38:10;6.33;;;5.50;;
8861;SDS011;4799;50.996;4.754;2024-01-30T02:40:36;6.63;;;5.43;;
8861;SDS011;4799;50.996;4.754;2024-01-30T02:43:02;6.77;;;6.00;;
8861;SDS011;4799;50.996;4.754;2024-01-30T02:45:28;7.00;;;5.47;;
8861;SDS011;4799;50.996;4.754;2024-01-30T02:47:54;6.00;;;5.40;;
8861;SDS011;4799;50.996;4.754;2024-01-30T02:50:20;6.00;;;5.40;;
8861;SDS011;4799;50.996;4.754;2024-01-30T02:52:45;6.37;;;5.47;;
8861;SDS011;4799;50.996;4.754;2024-01-30T02:55:11;7.37;;;5.23;;
8861;SDS011;4799;50.996;4.754;2024-01-30T02:57:37;6.33;;;5.77;;
8861;SDS011;4799;50.996;4.754;2024-01-30T03:00:04;6.80;;;5.53;;
8861;SDS011;4799;50.996;4.754;2024-01-30T03:02:31;6.57;;;5.87;;
8861;SDS011;4799;50.996;4.754;2024-01-30T03:04:57;6.50;;;5.90;;
8861;SDS011;4799;50.996;4.754;2024-01-30T03:07:24;5.87;;;5.27;;
8861;SDS011;4799;50.996;4.754;2024-01-30T03:09:49;7.57;;;5.70;;
8861;SDS011;4799;50.996;4.754;2024-01-30T03:12:15;6.17;;;5.57;;
8861;SDS011;4799;50.996;4.754;2024-01-30T03:14:41;5.60;;;5.10;;
8861;SDS011;4799;50.996;4.754;2024-01-30T03:17:07;5.87;;;5.27;;
8861;SDS011;4799;50.996;4.754;2024-01-30T03:19:32;5.80;;;5.30;;
8861;SDS011;4799;50.996;4.754;2024-01-30T03:21:58;5.60;;;5.10;;
8861;SDS011;4799;50.996;4.754;2024-01-30T03:24:24;5.57;;;5.07;;
8861;SDS011;4799;50.996;4.754;2024-01-30T03:26:50;6.13;;;5.30;;
8861;SDS011;4799;50.996;4.754;2024-01-30T03:29:16;5.57;;;4.97;;
8861;SDS011;4799;50.996;4.754;2024-01-30T03:31:41;6.63;;;5.30;;
8861;SDS011;4799;50.996;4.754;2024-01-30T03:34:07;5.73;;;5.20;;
8861;SDS011;4799;50.996;4.754;2024-01-30T03:36:33;6.97;;;5.40;;
8861;SDS011;4799;50.996;4.754;2024-01-30T03:38:59;7.37;;;5.80;;
8861;SDS011;4799;50.996;4.754;2024-01-30T03:41:25;6.23;;;5.60;;
8861;SDS011;4799;50.996;4.754;2024-01-30T03:43:51;8.47;;;5.90;;
8861;SDS011;4799;50.996;4.754;2024-01-30T03:46:17;6.17;;;5.57;;
8861;SDS011;4799;50.996;4.754;2024-01-30T03:48:43;8.10;;;5.80;;
8861;SDS011;4799;50.996;4.754;2024-01-30T03:51:09;5.93;;;5.33;;
8861;SDS011;4799;50.996;4.754;2024-01-30T03:53:40;6.37;;;5.70;;
8861;SDS011;4799;50.996;4.754;2024-01-30T03:56:07;6.50;;;5.47;;
8861;SDS011;4799;50.996;4.754;2024-01-30T03:58:33;6.97;;;5.50;;
8861;SDS011;4799;50.996;4.754;2024-01-30T04:00:59;6.93;;;5.17;;
8861;SDS011;4799;50.996;4.754;2024-01-30T04:03:24;6.03;;;5.33;;
8861;SDS011;4799;50.996;4.754;2024-01-30T04:05:53;6.20;;;5.57;;
8861;SDS011;4799;50.996;4.754;2024-01-30T04:08:19;6.93;;;6.13;;
8861;SDS011;4799;50.996;4.754;2024-01-30T04:10:45;7.93;;;5.97;;
8861;SDS011;4799;50.996;4.754;2024-01-30T04:13:11;7.73;;;6.30;;
8861;SDS011;4799;50.996;4.754;2024-01-30T04:15:37;6.37;;;5.63;;
8861;SDS011;4799;50.996;4.754;2024-01-30T04:18:03;7.50;;;5.97;;
8861;SDS011;4799;50.996;4.754;2024-01-30T04:20:29;7.90;;;6.07;;
8861;SDS011;4799;50.996;4.754;2024-01-30T04:22:55;7.73;;;6.30;;
8861;SDS011;4799;50.996;4.754;2024-01-30T04:25:21;8.37;;;5.97;;
8861;SDS011;4799;50.996;4.754;2024-01-30T04:27:47;6.93;;;6.20;;
8861;SDS011;4799;50.996;4.754;2024-01-30T04:30:12;7.30;;;6.23;;
8861;SDS011;4799;50.996;4.754;2024-01-30T04:32:38;8.60;;;6.03;;
8861;SDS011;4799;50.996;4.754;2024-01-30T04:35:04;9.07;;;6.37;;
8861;SDS011;4799;50.996;4.754;2024-01-30T04:37:30;8.10;;;6.37;;
8861;SDS011;4799;50.996;4.754;2024-01-30T04:39:56;7.90;;;6.33;;
8861;SDS011;4799;50.996;4.754;2024-01-30T04:42:22;7.43;;;5.90;;
8861;SDS011;4799;50.996;4.754;2024-01-30T04:44:48;9.17;;;6.47;;
8861;SDS011;4799;50.996;4.754;2024-01-30T04:47:14;7.67;;;5.73;;
8861;SDS011;4799;50.996;4.754;2024-01-30T04:49:40;7.20;;;6.50;;
8861;SDS011;4799;50.996;4.754;2024-01-30T04:52:06;8.17;;;6.10;;
8861;SDS011;4799;50.996;4.754;2024-01-30T04:54:33;6.80;;;6.10;;
8861;SDS011;4799;50.996;4.754;2024-01-30T04:56:59;7.83;;;6.30;;
8861;SDS011;4799;50.996;4.754;2024-01-30T04:59:25;7.10;;;5.90;;
8861;SDS011;4799;50.996;4.754;2024-01-30T05:01:51;6.43;;;5.63;;
8861;SDS011;4799;50.996;4.754;2024-01-30T05:04:17;6.73;;;5.93;;
8861;SDS011;4799;50.996;4.754;2024-01-30T05:06:43;7.10;;;5.80;;
8861;SDS011;4799;50.996;4.754;2024-01-30T05:09:09;8.50;;;6.23;;
8861;SDS011;4799;50.996;4.754;2024-01-30T05:11:38;10.50;;;6.23;;
8861;SDS011;4799;50.996;4.754;2024-01-30T05:14:04;9.07;;;6.00;;
8861;SDS011;4799;50.996;4.754;2024-01-30T05:16:31;8.70;;;6.30;;
8861;SDS011;4799;50.996;4.754;2024-01-30T05:18:57;6.97;;;5.57;;
8861;SDS011;4799;50.996;4.754;2024-01-30T05:21:23;6.87;;;5.93;;
8861;SDS011;4799;50.996;4.754;2024-01-30T05:23:48;7.97;;;6.33;;
8861;SDS011;4799;50.996;4.754;2024-01-30T05:26:14;7.57;;;6.47;;
8861;SDS011;4799;50.996;4.754;2024-01-30T05:28:40;8.07;;;6.30;;
8861;SDS011;4799;50.996;4.754;2024-01-30T05:31:05;8.03;;;6.27;;
8861;SDS011;4799;50.996;4.754;2024-01-30T05:33:31;7.53;;;6.00;;
8861;SDS011;4799;50.996;4.754;2024-01-30T05:35:57;7.90;;;6.00;;
8861;SDS011;4799;50.996;4.754;2024-01-30T05:38:23;7.13;;;6.30;;
8861;SDS011;4799;50.996;4.754;2024-01-30T05:40:48;7.50;;;5.80;;
8861;SDS011;4799;50.996;4.754;2024-01-30T05:43:14;6.83;;;6.00;;
8861;SDS011;4799;50.996;4.754;2024-01-30T05:45:40;8.03;;;6.13;;
8861;SDS011;4799;50.996;4.754;2024-01-30T05:48:06;7.20;;;6.13;;
8861;SDS011;4799;50.996;4.754;2024-01-30T05:50:31;9.50;;;6.17;;
8861;SDS011;4799;50.996;4.754;2024-01-30T05:52:57;8.60;;;6.33;;
8861;SDS011;4799;50.996;4.754;2024-01-30T05:55:23;6.93;;;6.00;;
8861;SDS011;4799;50.996;4.754;2024-01-30T05:57:49;7.67;;;6.03;;
8861;SDS011;4799;50.996;4.754;2024-01-30T06:00:16;6.20;;;5.63;;
8861;SDS011;4799;50.996;4.754;2024-01-30T06:02:42;8.03;;;6.17;;
8861;SDS011;4799;50.996;4.754;2024-01-30T06:05:07;7.13;;;6.43;;
8861;SDS011;4799;50.996;4.754;2024-01-30T06:07:33;7.80;;;5.70;;
8861;SDS011;4799;50.996;4.754;2024-01-30T06:09:59;7.87;;;5.97;;
8861;SDS011;4799;50.996;4.754;2024-01-30T06:12:27;6.67;;;5.97;;
8861;SDS011;4799;50.996;4.754;2024-01-30T06:14:53;6.90;;;5.50;;
8861;SDS011;4799;50.996;4.754;2024-01-30T06:17:21;7.43;;;6.03;;
8861;SDS011;4799;50.996;4.754;2024-01-30T06:19:47;6.50;;;5.63;;
8861;SDS011;4799;50.996;4.754;2024-01-30T06:22:13;6.57;;;5.97;;
8861;SDS011;4799;50.996;4.754;2024-01-30T06:24:39;6.87;;;6.13;;
8861;SDS011;4799;50.996;4.754;2024-01-30T06:27:04;7.33;;;6.47;;
8861;SDS011;4799;50.996;4.754;2024-01-30T06:29:30;6.73;;;5.70;;
8861;SDS011;4799;50.996;4.754;2024-01-30T06:31:56;9.50;;;5.83;;
8861;SDS011;4799;50.996;4.754;2024-01-30T06:34:22;6.60;;;5.90;;
8861;SDS011;4799;50.996;4.754;2024-01-30T06:36:48;6.50;;;5.80;;
8861;SDS011;4799;50.996;4.754;2024-01-30T06:39:13;7.33;;;6.00;;
8861;SDS011;4799;50.996;4.754;2024-01-30T06:41:39;7.00;;;5.33;;
8861;SDS011;4799;50.996;4.754;2024-01-30T06:44:05;7.20;;;6.17;;
8861;SDS011;4799;50.996;4.754;2024-01-30T06:46:33;8.03;;;6.00;;
8861;SDS011;4799;50.996;4.754;2024-01-30T06:48:59;6.93;;;5.90;;
8861;SDS011;4799;50.996;4.754;2024-01-30T06:51:25;7.77;;;5.83;;
8861;SDS011;4799;50.996;4.754;2024-01-30T06:53:50;6.67;;;5.60;;
8861;SDS011;4799;50.996;4.754;2024-01-30T06:56:16;9.47;;;6.47;;
8861;SDS011;4799;50.996;4.754;2024-01-30T06:58:46;8.47;;;6.00;;
8861;SDS011;4799;50.996;4.754;2024-01-30T07:01:13;7.97;;;6.07;;
8861;SDS011;4799;50.996;4.754;2024-01-30T07:03:39;6.70;;;6.00;;
8861;SDS011;4799;50.996;4.754;2024-01-30T07:06:04;7.83;;;6.17;;
8861;SDS011;4799;50.996;4.754;2024-01-30T07:08:30;6.80;;;6.10;;
8861;SDS011;4799;50.996;4.754;2024-01-30T07:10:56;7.37;;;6.10;;
8861;SDS011;4799;50.996;4.754;2024-01-30T07:13:21;8.27;;;5.97;;
8861;SDS011;4799;50.996;4.754;2024-01-30T07:15:47;7.70;;;6.33;;
8861;SDS011;4799;50.996;4.754;2024-01-30T07:18:13;9.40;;;6.03;;
8861;SDS011;4799;50.996;4.754;2024-01-30T07:20:39;8.73;;;6.80;;
8861;SDS011;4799;50.996;4.754;2024-01-30T07:23:14;7.90;;;6.83;;
8861;SDS011;4799;50.996;4.754;2024-01-30T07:25:42;9.77;;;6.37;;
8861;SDS011;4799;50.996;4.754;2024-01-30T07:28:11;7.50;;;6.50;;
8861;SDS011;4799;50.996;4.754;2024-01-30T07:30:41;8.40;;;7.00;;
8861;SDS011;4799;50.996;4.754;2024-01-30T07:33:07;7.90;;;7.10;;
8861;SDS011;4799;50.996;4.754;2024-01-30T07:35:34;7.90;;;6.70;;
8861;SDS011;4799;50.996;4.754;2024-01-30T07:37:59;7.60;;;6.60;;
8861;SDS011;4799;50.996;4.754;2024-01-30T07:40:25;8.43;;;6.53;;
8861;SDS011;4799;50.996;4.754;2024-01-30T07:42:52;7.73;;;6.77;;
8861;SDS011;4799;50.996;4.754;2024-01-30T07:45:18;7.47;;;6.17;;
8861;SDS011;4799;50.996;4.754;2024-01-30T07:47:48;8.43;;;6.83;;
8861;SDS011;4799;50.996;4.754;2024-01-30T07:50:14;8.97;;;6.30;;
8861;SDS011;4799;50.996;4.754;2024-01-30T07:52:41;7.67;;;6.00;;
8861;SDS011;4799;50.996;4.754;2024-01-30T07:55:07;8.73;;;6.40;;
8861;SDS011;4799;50.996;4.754;2024-01-30T07:57:33;6.97;;;6.13;;
8861;SDS011;4799;50.996;4.754;2024-01-30T07:59:59;6.60;;;6.00;;
8861;SDS011;4799;50.996;4.754;2024-01-30T08:02:26;6.87;;;5.77;;
8861;SDS011;4799;50.996;4.754;2024-01-30T08:04:51;7.00;;;5.93;;
8861;SDS011;4799;50.996;4.754;2024-01-30T08:07:17;6.27;;;5.67;;
8861;SDS011;4799;50.996;4.754;2024-01-30T08:09:43;6.70;;;6.00;;
8861;SDS011;4799;50.996;4.754;2024-01-30T08:12:09;6.57;;;5.97;;
8861;SDS011;4799;50.996;4.754;2024-01-30T08:14:35;6.73;;;6.03;;
8861;SDS011;4799;50.996;4.754;2024-01-30T08:17:00;7.53;;;6.03;;
8861;SDS011;4799;50.996;4.754;2024-01-30T08:19:26;5.97;;;5.47;;
8861;SDS011;4799;50.996;4.754;2024-01-30T08:21:52;7.63;;;6.40;;
8861;SDS011;4799;50.996;4.754;2024-01-30T08:24:18;6.73;;;5.93;;
8861;SDS011;4799;50.996;4.754;2024-01-30T08:26:43;7.00;;;5.97;;
8861;SDS011;4799;50.996;4.754;2024-01-30T08:29:09;8.27;;;6.30;;
8861;SDS011;4799;50.996;4.754;2024-01-30T08:31:35;7.10;;;6.40;;
8861;SDS011;4799;50.996;4.754;2024-01-30T08:34:01;7.10;;;6.33;;
8861;SDS011;4799;50.996;4.754;2024-01-30T08:36:27;6.53;;;5.60;;
8861;SDS011;4799;50.996;4.754;2024-01-30T08:38:52;7.37;;;6.63;;
8861;SDS011;4799;50.996;4.754;2024-01-30T08:41:18;7.20;;;6.10;;
8861;SDS011;4799;50.996;4.754;2024-01-30T08:43:44;8.17;;;6.33;;
8861;SDS011;4799;50.996;4.754;2024-01-30T08:46:10;8.37;;;6.60;;
8861;SDS011;4799;50.996;4.754;2024-01-30T08:48:36;9.37;;;6.37;;
8861;SDS011;4799;50.996;4.754;2024-01-30T08:51:02;7.50;;;6.07;;
8861;SDS011;4799;50.996;4.754;2024-01-30T08:53:28;7.63;;;6.20;;
8861;SDS011;4799;50.996;4.754;2024-01-30T08:55:53;8.37;;;6.63;;
8861;SDS011;4799;50.996;4.754;2024-01-30T08:58:19;6.60;;;6.00;;
8861;SDS011;4799;50.996;4.754;2024-01-30T09:00:45;6.53;;;5.87;;
8861;SDS011;4799;50.996;4.754;2024-01-30T09:03:10;8.67;;;6.53;;
8861;SDS011;4799;50.996;4.754;2024-01-30T09:05:36;7.47;;;6.17;;
8861;SDS011;4799;50.996;4.754;2024-01-30T09:08:02;7.47;;;6.30;;
8861;SDS011;4799;50.996;4.754;2024-01-30T09:10:28;9.40;;;6.60;;
8861;SDS011;4799;50.996;4.754;2024-01-30T09:12:53;6.40;;;5.73;;
8861;SDS011;4799;50.996;4.754;2024-01-30T09:15:19;8.70;;;6.63;;
8861;SDS011;4799;50.996;4.754;2024-01-30T09:17:45;8.33;;;7.00;;
8861;SDS011;4799;50.996;4.754;2024-01-30T09:20:10;8.20;;;6.47;;
8861;SDS011;4799;50.996;4.754;2024-01-30T09:22:36;6.97;;;6.27;;
8861;SDS011;4799;50.996;4.754;2024-01-30T09:25:03;6.93;;;6.23;;
8861;SDS011;4799;50.996;4.754;2024-01-30T09:27:29;8.43;;;6.47;;
8861;SDS011;4799;50.996;4.754;2024-01-30T09:29:55;8.93;;;6.30;;
8861;SDS011;4799;50.996;4.754;2024-01-30T09:32:20;8.00;;;6.50;;
8861;SDS011;4799;50.996;4.754;2024-01-30T09:34:46;9.97;;;7.07;;
8861;SDS011;4799;50.996;4.754;2024-01-30T09:37:12;9.43;;;6.50;;
8861;SDS011;4799;50.996;4.754;2024-01-30T09:39:40;7.90;;;6.73;;
8861;SDS011;4799;50.996;4.754;2024-01-30T09:42:26;8.43;;;6.30;;
8861;SDS011;4799;50.996;4.754;2024-01-30T09:45:00;10.30;;;6.77;;
8861;SDS011;4799;50.996;4.754;2024-01-30T09:47:38;7.33;;;6.57;;
8861;SDS011;4799;50.996;4.754;2024-01-30T09:50:08;12.67;;;6.83;;
8861;SDS011;4799;50.996;4.754;2024-01-30T09:52:35;8.07;;;6.43;;
8861;SDS011;4799;50.996;4.754;2024-01-30T09:55:01;7.47;;;6.67;;
8861;SDS011;4799;50.996;4.754;2024-01-30T09:57:27;7.40;;;6.60;;
8861;SDS011;4799;50.996;4.754;2024-01-30T09:59:53;7.70;;;6.10;;
8861;SDS011;4799;50.996;4.754;2024-01-30T10:02:19;9.37;;;6.87;;
8861;SDS011;4799;50.996;4.754;2024-01-30T10:04:49;8.23;;;6.50;;
8861;SDS011;4799;50.996;4.754;2024-01-30T10:07:15;9.30;;;6.60;;
8861;SDS011;4799;50.996;4.754;2024-01-30T10:09:45;8.97;;;6.47;;
8861;SDS011;4799;50.996;4.754;2024-01-30T10:12:10;8.60;;;6.87;;
8861;SDS011;4799;50.996;4.754;2024-01-30T10:14:40;9.17;;;6.97;;
8861;SDS011;4799;50.996;4.754;2024-01-30T10:17:10;8.33;;;6.80;;
8861;SDS011;4799;50.996;4.754;2024-01-30T10:19:37;11.03;;;7.03;;
8861;SDS011;4799;50.996;4.754;2024-01-30T10:22:07;7.93;;;6.80;;
8861;SDS011;4799;50.996;4.754;2024-01-30T10:24:33;8.43;;;7.47;;
8861;SDS011;4799;50.996;4.754;2024-01-30T10:26:59;9.37;;;7.57;;
8861;SDS011;4799;50.996;4.754;2024-01-30T10:29:25;10.67;;;8.10;;
8861;SDS011;4799;50.996;4.754;2024-01-30T10:31:58;10.23;;;7.67;;
8861;SDS011;4799;50.996;4.754;2024-01-30T10:34:25;11.90;;;8.30;;
8861;SDS011;4799;50.996;4.754;2024-01-30T10:36:53;12.40;;;8.23;;
8861;SDS011;4799;50.996;4.754;2024-01-30T10:39:38;11.93;;;8.40;;
8861;SDS011;4799;50.996;4.754;2024-01-30T10:42:06;9.40;;;8.13;;
8861;SDS011;4799;50.996;4.754;2024-01-30T10:44:36;11.63;;;8.37;;
8861;SDS011;4799;50.996;4.754;2024-01-30T10:47:18;10.53;;;9.20;;
8861;SDS011;4799;50.996;4.754;2024-01-30T10:49:48;10.47;;;9.37;;
8861;SDS011;4799;50.996;4.754;2024-01-30T10:52:14;10.37;;;9.07;;
8861;SDS011;4799;50.996;4.754;2024-01-30T10:54:42;11.63;;;9.23;;
8861;SDS011;4799;50.996;4.754;2024-01-30T10:57:10;11.07;;;8.70;;
8861;SDS011;4799;50.996;4.754;2024-01-30T10:59:37;10.33;;;9.23;;
8861;SDS011;4799;50.996;4.754;2024-01-30T11:02:04;13.20;;;9.40;;
8861;SDS011;4799;50.996;4.754;2024-01-30T11:04:37;13.30;;;10.10;;
8861;SDS011;4799;50.996;4.754;2024-01-30T11:07:18;12.57;;;10.10;;
8861;SDS011;4799;50.996;4.754;2024-01-30T11:12:25;12.80;;;8.60;;
8861;SDS011;4799;50.996;4.754;2024-01-30T11:15:08;11.00;;;8.57;;
8861;SDS011;4799;50.996;4.754;2024-01-30T11:20:20;12.67;;;8.27;;
8861;SDS011;4799;50.996;4.754;2024-01-30T11:22:48;10.07;;;7.50;;
8861;SDS011;4799;50.996;4.754;2024-01-30T11:25:17;11.70;;;8.10;;
8861;SDS011;4799;50.996;4.754;2024-01-30T11:27:44;10.50;;;7.67;;
8861;SDS011;4799;50.996;4.754;2024-01-30T11:30:11;8.63;;;7.13;;
8861;SDS011;4799;50.996;4.754;2024-01-30T11:32:57;10.50;;;7.13;;
8861;SDS011;4799;50.996;4.754;2024-01-30T11:35:34;9.07;;;6.17;;
8861;SDS011;4799;50.996;4.754;2024-01-30T11:38:04;9.20;;;5.80;;
8861;SDS011;4799;50.996;4.754;2024-01-30T11:40:31;8.77;;;6.07;;
8861;SDS011;4799;50.996;4.754;2024-01-30T11:42:58;8.60;;;5.63;;
8861;SDS011;4799;50.996;4.754;2024-01-30T11:45:26;9.07;;;5.87;;
8861;SDS011;4799;50.996;4.754;2024-01-30T11:47:54;8.80;;;5.23;;
8861;SDS011;4799;50.996;4.754;2024-01-30T11:50:21;8.60;;;4.13;;
8861;SDS011;4799;50.996;4.754;2024-01-30T11:52:47;4.90;;;3.07;;
8861;SDS011;4799;50.996;4.754;2024-01-30T11:55:13;4.63;;;2.40;;
8861;SDS011;4799;50.996;4.754;2024-01-30T11:57:40;6.07;;;2.10;;
8861;SDS011;4799;50.996;4.754;2024-01-30T12:00:06;5.17;;;1.90;;
8861;SDS011;4799;50.996;4.754;2024-01-30T12:02:39;3.63;;;1.67;;
8861;SDS011;4799;50.996;4.754;2024-01-30T12:05:06;4.83;;;1.80;;
8861;SDS011;4799;50.996;4.754;2024-01-30T12:07:32;3.23;;;1.47;;
8861;SDS011;4799;50.996;4.754;2024-01-30T12:09:58;3.70;;;1.40;;
8861;SDS011;4799;50.996;4.754;2024-01-30T12:12:28;3.37;;;1.40;;
8861;SDS011;4799;50.996;4.754;2024-01-30T12:14:55;2.90;;;1.40;;
8861;SDS011;4799;50.996;4.754;2024-01-30T12:17:28;3.10;;;1.30;;
8861;SDS011;4799;50.996;4.754;2024-01-30T12:20:04;3.20;;;1.20;;
8861;SDS011;4799;50.996;4.754;2024-01-30T12:22:33;1.43;;;0.80;;
8861;SDS011;4799;50.996;4.754;2024-01-30T12:25:09;1.73;;;0.90;;
8861;SDS011;4799;50.996;4.754;2024-01-30T12:27:36;3.20;;;1.13;;
8861;SDS011;4799;50.996;4.754;2024-01-30T12:30:06;3.83;;;1.13;;
8861;SDS011;4799;50.996;4.754;2024-01-30T12:32:36;2.17;;;1.00;;
8861;SDS011;4799;50.996;4.754;2024-01-30T12:35:02;3.10;;;1.10;;
8861;SDS011;4799;50.996;4.754;2024-01-30T12:37:29;3.87;;;1.20;;
8861;SDS011;4799;50.996;4.754;2024-01-30T12:39:55;3.17;;;1.40;;
8861;SDS011;4799;50.996;4.754;2024-01-30T12:42:21;2.27;;;1.10;;
8861;SDS011;4799;50.996;4.754;2024-01-30T12:44:48;2.87;;;1.13;;
8861;SDS011;4799;50.996;4.754;2024-01-30T12:47:14;2.40;;;1.03;;
8861;SDS011;4799;50.996;4.754;2024-01-30T12:49:43;3.07;;;1.20;;
8861;SDS011;4799;50.996;4.754;2024-01-30T12:52:19;3.17;;;1.10;;
8861;SDS011;4799;50.996;4.754;2024-01-30T12:54:45;3.07;;;1.10;;
8861;SDS011;4799;50.996;4.754;2024-01-30T12:57:11;4.93;;;1.10;;
8861;SDS011;4799;50.996;4.754;2024-01-30T12:59:37;4.13;;;1.20;;
8861;SDS011;4799;50.996;4.754;2024-01-30T13:02:03;4.10;;;1.07;;
8861;SDS011;4799;50.996;4.754;2024-01-30T13:04:29;3.57;;;1.27;;
8861;SDS011;4799;50.996;4.754;2024-01-30T13:06:55;2.10;;;0.90;;
8861;SDS011;4799;50.996;4.754;2024-01-30T13:09:20;2.50;;;0.93;;
8861;SDS011;4799;50.996;4.754;2024-01-30T13:11:46;4.70;;;1.13;;
8861;SDS011;4799;50.996;4.754;2024-01-30T13:14:12;3.70;;;1.10;;
8861;SDS011;4799;50.996;4.754;2024-01-30T13:16:37;3.83;;;1.07;;
8861;SDS011;4799;50.996;4.754;2024-01-30T13:19:03;3.53;;;1.10;;
8861;SDS011;4799;50.996;4.754;2024-01-30T13:21:29;5.10;;;1.27;;
8861;SDS011;4799;50.996;4.754;2024-01-30T13:23:54;3.47;;;1.30;;
8861;SDS011;4799;50.996;4.754;2024-01-30T13:26:20;3.70;;;1.47;;
8861;SDS011;4799;50.996;4.754;2024-01-30T13:28:47;2.20;;;1.03;;
8861;SDS011;4799;50.996;4.754;2024-01-30T13:31:13;3.43;;;1.03;;
8861;SDS011;4799;50.996;4.754;2024-01-30T13:33:40;3.30;;;1.30;;
8861;SDS011;4799;50.996;4.754;2024-01-30T13:36:06;4.10;;;1.47;;
8861;SDS011;4799;50.996;4.754;2024-01-30T13:38:34;3.77;;;1.03;;
8861;SDS011;4799;50.996;4.754;2024-01-30T13:40:59;1.77;;;0.87;;
8861;SDS011;4799;50.996;4.754;2024-01-30T13:43:25;1.57;;;1.00;;
8861;SDS011;4799;50.996;4.754;2024-01-30T13:45:51;3.00;;;1.10;;
8861;SDS011;4799;50.996;4.754;2024-01-30T13:48:17;2.43;;;1.20;;
8861;SDS011;4799;50.996;4.754;2024-01-30T13:50:43;4.03;;;1.30;;
8861;SDS011;4799;50.996;4.754;2024-01-30T13:53:08;1.83;;;0.90;;
8861;SDS011;4799;50.996;4.754;2024-01-30T13:55:34;5.47;;;1.30;;
8861;SDS011;4799;50.996;4.754;2024-01-30T13:58:00;2.93;;;1.03;;
8861;SDS011;4799;50.996;4.754;2024-01-30T14:00:29;3.43;;;1.10;;
8861;SDS011;4799;50.996;4.754;2024-01-30T14:02:55;3.57;;;1.40;;
8861;SDS011;4799;50.996;4.754;2024-01-30T14:05:21;4.43;;;1.30;;
8861;SDS011;4799;50.996;4.754;2024-01-30T14:07:47;2.50;;;1.10;;
8861;SDS011;4799;50.996;4.754;2024-01-30T14:10:13;3.47;;;1.40;;
8861;SDS011;4799;50.996;4.754;2024-01-30T14:12:39;3.63;;;1.30;;
8861;SDS011;4799;50.996;4.754;2024-01-30T14:15:06;5.07;;;1.97;;
8861;SDS011;4799;50.996;4.754;2024-01-30T14:17:33;2.73;;;1.30;;
8861;SDS011;4799;50.996;4.754;2024-01-30T14:19:58;3.73;;;1.40;;
8861;SDS011;4799;50.996;4.754;2024-01-30T14:22:24;2.47;;;1.30;;
8861;SDS011;4799;50.996;4.754;2024-01-30T14:24:49;3.97;;;1.50;;
8861;SDS011;4799;50.996;4.754;2024-01-30T14:27:15;3.80;;;1.30;;
8861;SDS011;4799;50.996;4.754;2024-01-30T14:29:41;3.87;;;1.50;;
8861;SDS011;4799;50.996;4.754;2024-01-30T14:32:08;5.30;;;1.27;;
8861;SDS011;4799;50.996;4.754;2024-01-30T14:34:33;2.87;;;1.20;;
8861;SDS011;4799;50.996;4.754;2024-01-30T14:37:00;5.00;;;1.73;;
8861;SDS011;4799;50.996;4.754;2024-01-30T14:39:26;2.30;;;1.40;;
8861;SDS011;4799;50.996;4.754;2024-01-30T14:41:51;5.43;;;1.73;;
8861;SDS011;4799;50.996;4.754;2024-01-30T14:44:17;3.53;;;1.63;;
8861;SDS011;4799;50.996;4.754;2024-01-30T14:46:43;4.37;;;1.57;;
8861;SDS011;4799;50.996;4.754;2024-01-30T14:49:09;4.87;;;1.77;;
8861;SDS011;4799;50.996;4.754;2024-01-30T14:51:34;7.40;;;1.70;;
8861;SDS011;4799;50.996;4.754;2024-01-30T14:54:00;2.70;;;1.60;;
8861;SDS011;4799;50.996;4.754;2024-01-30T14:56:26;3.17;;;1.60;;
8861;SDS011;4799;50.996;4.754;2024-01-30T14:58:52;6.43;;;2.20;;
8861;SDS011;4799;50.996;4.754;2024-01-30T15:01:18;4.53;;;1.70;;
8861;SDS011;4799;50.996;4.754;2024-01-30T15:03:44;4.10;;;1.50;;
8861;SDS011;4799;50.996;4.754;2024-01-30T15:06:12;4.23;;;1.90;;
8861;SDS011;4799;50.996;4.754;2024-01-30T15:08:38;4.73;;;1.97;;
8861;SDS011;4799;50.996;4.754;2024-01-30T15:11:03;5.20;;;1.80;;
8861;SDS011;4799;50.996;4.754;2024-01-30T15:13:30;5.13;;;1.93;;
8861;SDS011;4799;50.996;4.754;2024-01-30T15:15:56;4.03;;;1.60;;
8861;SDS011;4799;50.996;4.754;2024-01-30T15:18:22;4.47;;;1.57;;